Hagar Shores, Michigan
Current Conditions -  °F | °C
As of 12:53 PM on Friday 21 Nov 2014 (Local Time) from KBEH Reporting Station
Scattered Clouds Scattered Clouds  
Wind Chill: 22°   Ceiling: Unl
Heat Index: 29°   Visibility: 10mi
Dew Point: 14°   Wind: 7mph
Humidity: 54%   Direction: 160°SSE
Pressure: 30.43"   Gusts: NA
Location:  42.19°N, 86.31°W
Report Text: KBEH 211753Z AUTO 16006KT 10SM SCT031 M02/M10 A3043 RMK AO2 SLP316 T10171100 11011 21061 58003
Loading
Personal Weather Stations






























Interactive Weather Map New forecast layout! Learn more

10-Day Weather Forecast

Advertisements
Track Severe Weather on mobile